createdAt,value
2019-01-08T00:00:45.444Z,24.18
2019-01-08T00:01:50.288Z,25.15
2019-01-08T00:02:55.088Z,24.75
2019-01-08T00:03:59.972Z,25.05
2019-01-08T00:05:05.046Z,24.00
2019-01-08T00:06:09.993Z,24.18
2019-01-08T00:07:14.824Z,23.70
2019-01-08T00:08:19.721Z,24.00
2019-01-08T00:09:24.612Z,24.27
2019-01-08T00:10:29.401Z,25.37
2019-01-08T00:11:34.432Z,25.15
2019-01-08T00:12:39.273Z,23.47
2019-01-08T00:13:44.358Z,25.48
2019-01-08T00:14:49.206Z,24.82
2019-01-08T00:15:54.163Z,23.07
2019-01-08T00:16:59.113Z,22.77
2019-01-08T00:18:04.017Z,23.75
2019-01-08T00:19:09.080Z,23.22
2019-01-08T00:20:13.869Z,22.82
2019-01-08T00:21:18.716Z,22.75
2019-01-08T00:22:23.610Z,22.20
2019-01-08T00:23:28.489Z,23.90
2019-01-08T00:24:33.288Z,23.60
2019-01-08T00:25:38.114Z,24.47
2019-01-08T00:26:42.944Z,25.57
2019-01-08T00:27:47.840Z,24.00
2019-01-08T00:28:52.850Z,25.27
2019-01-08T00:29:57.757Z,24.43
2019-01-08T00:31:02.747Z,24.80
2019-01-08T00:32:07.665Z,23.35
2019-01-08T00:33:12.548Z,24.90
2019-01-08T00:34:17.396Z,24.98
2019-01-08T00:35:22.088Z,23.57
2019-01-08T00:36:27.040Z,22.77
2019-01-08T00:37:31.938Z,23.22
2019-01-08T00:38:36.851Z,21.82
2019-01-08T00:39:44.841Z,24.80
2019-01-08T00:40:49.721Z,23.52
2019-01-08T00:41:54.436Z,23.77
2019-01-08T00:42:59.284Z,23.77
2019-01-08T00:44:04.548Z,25.48
2019-01-08T00:45:09.487Z,25.70
2019-01-08T00:46:14.429Z,22.93
2019-01-08T00:47:19.256Z,24.90
2019-01-08T00:48:23.972Z,23.25
2019-01-08T00:49:28.993Z,23.27
2019-01-08T00:50:33.846Z,22.93
2019-01-08T00:51:38.643Z,24.98
2019-01-08T00:52:43.529Z,22.67
2019-01-08T00:53:48.448Z,21.57
2019-01-08T00:54:53.564Z,23.77
2019-01-08T00:55:58.376Z,24.20
2019-01-08T00:57:03.129Z,22.60
2019-01-08T00:58:07.888Z,23.87
2019-01-08T00:59:12.837Z,23.27
2019-01-08T01:00:18.256Z,22.13
2019-01-08T01:01:23.160Z,23.40
2019-01-08T01:02:28.144Z,22.60
2019-01-08T01:03:32.891Z,21.42
2019-01-08T01:04:37.874Z,22.65
2019-01-08T01:05:42.783Z,23.30
2019-01-08T01:06:47.636Z,21.42
2019-01-08T01:07:52.411Z,21.97
2019-01-08T01:08:57.232Z,21.00
2019-01-08T01:10:02.117Z,21.57
2019-01-08T01:11:06.979Z,21.33
2019-01-08T01:12:11.930Z,21.00
2019-01-08T01:13:16.643Z,22.70
2019-01-08T01:14:21.532Z,21.77
2019-01-08T01:15:26.431Z,21.82
2019-01-08T01:16:31.291Z,21.35
2019-01-08T01:17:36.248Z,21.60
2019-01-08T01:18:40.965Z,20.62
2019-01-08T01:19:45.761Z,21.80
2019-01-08T01:20:50.540Z,21.90
2019-01-08T01:21:55.485Z,23.25
2019-01-08T01:23:00.337Z,21.52
2019-01-08T01:24:05.178Z,20.82
2019-01-08T01:25:09.985Z,22.15
2019-01-08T01:26:14.735Z,20.05
2019-01-08T01:27:19.621Z,21.15
2019-01-08T01:28:24.480Z,22.82
2019-01-08T01:29:29.816Z,20.62
2019-01-08T01:30:34.527Z,21.35
2019-01-08T01:31:39.280Z,22.77
2019-01-08T01:32:45.031Z,20.37
2019-01-08T01:33:49.811Z,21.00
2019-01-08T01:34:54.818Z,19.35
2019-01-08T01:35:59.640Z,22.07
2019-01-08T01:37:04.398Z,21.55
2019-01-08T01:38:09.461Z,21.75
2019-01-08T01:39:14.332Z,21.42
2019-01-08T01:40:19.118Z,22.20
2019-01-08T01:41:23.911Z,21.07
2019-01-08T01:42:28.765Z,21.87
2019-01-08T01:43:33.693Z,21.52
2019-01-08T01:44:38.451Z,21.80
2019-01-08T01:45:43.324Z,20.55
2019-01-08T01:46:48.127Z,20.82
2019-01-08T01:47:53.005Z,20.90
2019-01-08T01:48:57.783Z,21.93
2019-01-08T01:50:02.650Z,21.73
2019-01-08T01:51:07.531Z,21.35
2019-01-08T01:52:12.284Z,20.23
2019-01-08T01:53:17.040Z,21.48
2019-01-08T01:54:22.001Z,20.15
2019-01-08T01:55:26.868Z,19.60
2019-01-08T01:56:31.688Z,18.98
2019-01-08T01:57:36.411Z,19.15
2019-01-08T01:58:41.180Z,18.62
2019-01-08T01:59:46.124Z,17.75
2019-01-08T02:00:50.989Z,19.77
2019-01-08T02:01:55.829Z,19.73
2019-01-08T02:03:00.592Z,17.85
2019-01-08T02:04:05.535Z,17.77
2019-01-08T02:05:10.313Z,18.12
2019-01-08T02:06:15.056Z,16.67
2019-01-08T02:07:19.960Z,15.43
2019-01-08T02:08:24.705Z,16.52
2019-01-08T02:09:29.477Z,16.65
2019-01-08T02:10:34.511Z,18.48
2019-01-08T02:11:39.441Z,17.10
2019-01-08T02:12:44.361Z,15.70
2019-01-08T02:13:49.212Z,16.62
2019-01-08T02:14:53.976Z,16.67
2019-01-08T02:15:59.092Z,15.08
2019-01-08T02:17:04.044Z,16.15
2019-01-08T02:18:08.789Z,16.20
2019-01-08T02:19:13.637Z,15.43
2019-01-08T02:20:18.503Z,16.07
2019-01-08T02:21:23.309Z,14.78
2019-01-08T02:22:28.040Z,16.93
2019-01-08T02:23:32.899Z,16.05
2019-01-08T02:24:37.756Z,14.50
2019-01-08T02:25:42.596Z,14.93
2019-01-08T02:26:47.308Z,16.10
2019-01-08T02:27:52.040Z,15.95
2019-01-08T02:28:56.920Z,14.55
2019-01-08T02:30:01.918Z,14.38
2019-01-08T02:31:06.707Z,13.53
2019-01-08T02:32:11.562Z,13.90
2019-01-08T02:33:16.409Z,14.28
2019-01-08T02:34:21.145Z,12.90
2019-01-08T02:35:25.921Z,14.00
2019-01-08T02:36:30.678Z,14.18
2019-01-08T02:37:35.574Z,13.68
2019-01-08T02:38:40.317Z,12.82
2019-01-08T02:39:45.324Z,13.30
2019-01-08T02:40:50.124Z,13.15
2019-01-08T02:41:55.001Z,12.70
2019-01-08T02:42:59.800Z,13.22
2019-01-08T02:44:04.781Z,12.28
2019-01-08T02:45:10.016Z,13.68
2019-01-08T02:46:14.868Z,12.85
2019-01-08T02:47:19.903Z,13.43
2019-01-08T02:48:24.771Z,13.25
2019-01-08T02:49:29.666Z,13.22
2019-01-08T02:50:34.510Z,13.18
2019-01-08T02:51:39.238Z,12.98
2019-01-08T02:52:43.964Z,14.50
2019-01-08T02:53:48.836Z,12.82
2019-01-08T02:54:53.956Z,12.78
2019-01-08T02:55:58.680Z,13.98
2019-01-08T02:57:03.508Z,12.98
2019-01-08T02:58:08.406Z,13.32
2019-01-08T02:59:13.251Z,13.20
2019-01-08T03:00:18.066Z,13.22
2019-01-08T03:01:22.827Z,12.58
2019-01-08T03:02:27.571Z,11.88
2019-01-08T03:03:32.515Z,13.00
2019-01-08T03:04:37.376Z,11.45
2019-01-08T03:05:42.154Z,12.30
2019-01-08T03:06:46.908Z,12.53
2019-01-08T03:07:51.641Z,12.18
2019-01-08T03:08:59.676Z,11.75
2019-01-08T03:10:04.841Z,10.70
2019-01-08T03:11:09.712Z,11.35
2019-01-08T03:12:14.575Z,12.23
2019-01-08T03:13:19.468Z,10.95
2019-01-08T03:14:24.249Z,11.70
2019-01-08T03:15:29.016Z,12.43
2019-01-08T03:16:33.970Z,10.98
2019-01-08T03:17:38.884Z,12.03
2019-01-08T03:18:43.680Z,11.83
2019-01-08T03:19:48.432Z,10.75
2019-01-08T03:20:53.396Z,10.25
2019-01-08T03:21:58.237Z,10.93
2019-01-08T03:23:02.975Z,11.90
2019-01-08T03:24:07.708Z,11.70
2019-01-08T03:25:12.604Z,11.10
2019-01-08T03:26:17.322Z,10.85
2019-01-08T03:27:22.060Z,11.80
2019-01-08T03:28:26.871Z,11.25
2019-01-08T03:29:33.689Z,10.72
2019-01-08T03:30:38.121Z,10.60
2019-01-08T03:31:42.865Z,11.78
2019-01-08T03:32:47.787Z,10.90
2019-01-08T03:33:52.695Z,11.05
2019-01-08T03:34:57.499Z,11.03
2019-01-08T03:36:02.475Z,10.40
2019-01-08T03:37:07.241Z,9.98
2019-01-08T03:38:12.184Z,10.82
2019-01-08T03:39:16.884Z,10.95
2019-01-08T03:40:21.677Z,11.08
2019-01-08T03:41:26.622Z,10.58
2019-01-08T03:42:31.380Z,11.05
2019-01-08T03:43:36.108Z,10.70
2019-01-08T03:44:40.936Z,10.40
2019-01-08T03:45:45.716Z,10.60
2019-01-08T03:46:53.352Z,10.55
2019-01-08T03:47:58.199Z,11.45
2019-01-08T03:49:02.936Z,11.70
2019-01-08T03:50:08.315Z,10.05
2019-01-08T03:51:13.241Z,10.85
2019-01-08T03:52:18.164Z,9.85
2019-01-08T03:53:22.872Z,10.70
2019-01-08T03:54:27.900Z,10.25
2019-01-08T03:55:32.664Z,10.78
2019-01-08T03:56:37.500Z,10.45
2019-01-08T03:57:42.280Z,10.78
2019-01-08T03:58:47.033Z,11.20
2019-01-08T03:59:51.973Z,10.18
2019-01-08T04:00:56.805Z,10.58
2019-01-08T04:02:01.692Z,10.60
2019-01-08T04:03:06.544Z,10.35
2019-01-08T04:04:11.309Z,10.38
2019-01-08T04:05:17.148Z,10.08
2019-01-08T04:06:21.929Z,10.32
2019-01-08T04:07:26.808Z,9.03
2019-01-08T04:08:31.556Z,10.30
2019-01-08T04:09:36.395Z,9.10
2019-01-08T04:10:41.220Z,9.40
2019-01-08T04:11:45.944Z,9.70
2019-01-08T04:12:50.784Z,9.78
2019-01-08T04:13:55.576Z,8.73
2019-01-08T04:15:00.441Z,8.95
2019-01-08T04:16:05.264Z,9.13
2019-01-08T04:17:28.953Z,9.60
2019-01-08T04:18:33.700Z,8.40
2019-01-08T04:19:38.433Z,8.28
2019-01-08T04:20:43.404Z,8.10
2019-01-08T04:21:48.267Z,8.53
2019-01-08T04:22:53.024Z,8.73
2019-01-08T04:23:57.784Z,7.72
2019-01-08T04:25:02.860Z,7.78
2019-01-08T04:26:07.755Z,7.92
2019-01-08T04:27:12.592Z,8.05
2019-01-08T04:28:17.480Z,7.70
2019-01-08T04:29:22.204Z,7.92
2019-01-08T04:30:28.492Z,7.95
2019-01-08T04:31:33.432Z,7.35
2019-01-08T04:32:38.166Z,8.05
2019-01-08T04:33:42.948Z,7.80
2019-01-08T04:34:47.684Z,8.20
2019-01-08T04:35:52.616Z,8.23
2019-01-08T04:36:57.356Z,7.90
2019-01-08T04:38:02.216Z,7.28
2019-01-08T04:39:07.592Z,7.35
2019-01-08T04:40:12.365Z,7.30
2019-01-08T04:41:17.221Z,7.65
2019-01-08T04:42:22.124Z,7.97
2019-01-08T04:43:26.852Z,7.72
2019-01-08T04:44:31.576Z,7.65
2019-01-08T04:45:36.308Z,6.78
2019-01-08T04:46:41.209Z,6.45
2019-01-08T04:47:46.026Z,7.30
2019-01-08T04:48:50.884Z,8.13
2019-01-08T04:49:55.688Z,7.03
2019-01-08T04:51:00.591Z,6.70
2019-01-08T04:52:05.435Z,7.25
2019-01-08T04:53:10.274Z,7.20
2019-01-08T04:54:15.096Z,7.08
2019-01-08T04:55:19.954Z,7.15
2019-01-08T04:56:24.722Z,6.72
2019-01-08T04:57:29.571Z,7.05
2019-01-08T04:58:34.438Z,7.08
2019-01-08T04:59:39.197Z,7.12
2019-01-08T05:00:44.066Z,7.37
2019-01-08T05:01:48.899Z,7.65
2019-01-08T05:02:53.771Z,6.78
2019-01-08T05:03:58.585Z,7.15
2019-01-08T05:05:03.528Z,7.22
2019-01-08T05:06:08.320Z,7.65
2019-01-08T05:07:13.063Z,6.75
2019-01-08T05:08:17.962Z,7.15
2019-01-08T05:09:22.876Z,6.90
2019-01-08T05:10:27.592Z,6.70
2019-01-08T05:11:32.551Z,6.83
2019-01-08T05:12:37.608Z,6.53
2019-01-08T05:13:42.329Z,6.35
2019-01-08T05:14:47.142Z,6.15
2019-01-08T05:15:52.028Z,6.17
2019-01-08T05:16:56.973Z,6.72
2019-01-08T05:18:01.860Z,6.22
2019-01-08T05:19:06.612Z,7.05
2019-01-08T05:20:11.377Z,6.65
2019-01-08T05:21:16.285Z,6.08
2019-01-08T05:22:21.204Z,6.22
2019-01-08T05:23:25.939Z,6.83
2019-01-08T05:24:30.779Z,5.60
2019-01-08T05:25:35.736Z,5.92
2019-01-08T05:26:40.640Z,5.83
2019-01-08T05:27:45.389Z,6.05
2019-01-08T05:28:50.132Z,5.87
2019-01-08T05:29:55.057Z,5.80
2019-01-08T05:30:59.877Z,6.67
2019-01-08T05:32:04.850Z,6.25
2019-01-08T05:33:09.749Z,6.25
2019-01-08T05:34:14.868Z,6.00
2019-01-08T05:35:20.773Z,5.95
2019-01-08T05:36:25.632Z,6.33
2019-01-08T05:37:30.589Z,6.25
2019-01-08T05:38:35.536Z,6.25
2019-01-08T05:39:40.256Z,7.30
2019-01-08T05:40:46.213Z,7.20
2019-01-08T05:41:51.180Z,6.60
2019-01-08T05:42:56.056Z,6.80
2019-01-08T05:44:01.127Z,7.00
2019-01-08T05:45:06.258Z,7.08
2019-01-08T05:46:11.291Z,7.20
2019-01-08T05:47:16.630Z,7.17
2019-01-08T05:48:21.464Z,6.67
2019-01-08T05:49:26.409Z,7.55
2019-01-08T05:50:31.365Z,6.75
2019-01-08T05:51:36.066Z,6.42
2019-01-08T05:52:40.828Z,6.72
2019-01-08T05:53:46.852Z,6.72
2019-01-08T05:54:51.844Z,6.67
2019-01-08T05:55:56.678Z,6.78
2019-01-08T05:57:02.310Z,7.00
2019-01-08T05:58:07.194Z,6.85
2019-01-08T05:59:12.047Z,7.10
2019-01-08T06:00:17.053Z,6.90
2019-01-08T06:01:21.897Z,7.22
2019-01-08T06:02:26.687Z,7.67
2019-01-08T06:03:31.437Z,7.75
2019-01-08T06:04:36.230Z,6.80
2019-01-08T06:05:41.276Z,6.90
2019-01-08T06:06:46.309Z,6.33
2019-01-08T06:07:51.310Z,7.08
2019-01-08T06:08:56.282Z,7.22
2019-01-08T06:10:01.012Z,7.60
2019-01-08T06:11:05.941Z,7.70
2019-01-08T06:12:10.795Z,7.05
2019-01-08T06:13:15.534Z,7.28
2019-01-08T06:14:21.500Z,7.92
2019-01-08T06:15:26.595Z,7.80
2019-01-08T06:16:31.447Z,8.18
2019-01-08T06:17:36.448Z,7.85
2019-01-08T06:18:41.184Z,8.05
2019-01-08T06:19:46.076Z,8.95
2019-01-08T06:20:50.946Z,8.88
2019-01-08T06:21:55.828Z,9.55
2019-01-08T06:23:00.972Z,9.28
2019-01-08T06:24:05.925Z,10.43
2019-01-08T06:25:10.752Z,10.28
2019-01-08T06:26:15.714Z,9.35
2019-01-08T06:27:20.680Z,9.65
2019-01-08T06:28:25.989Z,9.95
2019-01-08T06:29:32.106Z,10.45
2019-01-08T06:30:37.613Z,11.88
2019-01-08T06:31:42.505Z,11.22
2019-01-08T06:32:47.461Z,11.30
2019-01-08T06:33:52.323Z,9.80
2019-01-08T06:34:57.147Z,11.35
2019-01-08T06:36:02.009Z,10.35
2019-01-08T06:37:06.979Z,11.00
2019-01-08T06:38:11.908Z,11.12
2019-01-08T06:39:16.740Z,10.90
2019-01-08T06:40:21.513Z,10.78
2019-01-08T06:41:26.525Z,11.53
2019-01-08T06:42:31.487Z,10.88
2019-01-08T06:43:36.304Z,11.43
2019-01-08T06:44:41.066Z,12.15
2019-01-08T06:45:46.120Z,12.58
2019-01-08T06:46:51.417Z,11.83
2019-01-08T06:47:56.898Z,12.23
2019-01-08T06:49:02.002Z,12.13
2019-01-08T06:50:08.760Z,11.20
2019-01-08T06:51:13.594Z,11.22
2019-01-08T06:52:18.516Z,11.75
2019-01-08T06:53:23.452Z,12.75
2019-01-08T06:54:28.354Z,13.03
2019-01-08T06:55:33.369Z,12.60
2019-01-08T06:56:38.125Z,12.80
2019-01-08T06:57:43.165Z,13.55
2019-01-08T06:58:48.076Z,13.40
2019-01-08T06:59:53.136Z,12.23
2019-01-08T07:00:58.100Z,12.90
2019-01-08T07:02:03.166Z,12.53
2019-01-08T07:03:08.413Z,12.45
2019-01-08T07:04:13.416Z,12.47
2019-01-08T07:05:18.358Z,12.10
2019-01-08T07:06:23.280Z,12.88
2019-01-08T07:07:28.108Z,13.13
2019-01-08T07:08:33.213Z,12.93
2019-01-08T07:09:38.099Z,12.85
2019-01-08T07:10:43.117Z,13.20
2019-01-08T07:11:47.955Z,13.00
2019-01-08T07:12:52.962Z,14.38
2019-01-08T07:13:58.040Z,13.65
2019-01-08T07:15:03.152Z,14.38
2019-01-08T07:16:08.073Z,14.20
2019-01-08T07:17:12.921Z,14.65
2019-01-08T07:18:17.907Z,14.23
2019-01-08T07:19:22.943Z,15.25
2019-01-08T07:20:27.916Z,14.35
2019-01-08T07:21:32.671Z,14.00
2019-01-08T07:22:37.792Z,14.33
2019-01-08T07:23:42.665Z,14.85
2019-01-08T07:24:47.724Z,14.68
2019-01-08T07:25:52.599Z,15.53
2019-01-08T07:26:57.685Z,14.87
2019-01-08T07:28:02.662Z,14.23
2019-01-08T07:29:07.544Z,14.03
2019-01-08T07:30:12.276Z,12.98
2019-01-08T07:31:17.191Z,13.68
2019-01-08T07:32:21.921Z,14.00
2019-01-08T07:33:26.975Z,13.75
2019-01-08T07:34:31.987Z,13.80
2019-01-08T07:35:36.880Z,14.30
2019-01-08T07:36:41.739Z,15.03
2019-01-08T07:37:46.882Z,14.50
2019-01-08T07:38:52.072Z,14.60
2019-01-08T07:39:57.017Z,14.75
2019-01-08T07:41:01.738Z,15.08
2019-01-08T07:42:06.763Z,13.28
2019-01-08T07:43:11.664Z,16.27
2019-01-08T07:44:16.572Z,14.70
2019-01-08T07:45:21.312Z,15.95
2019-01-08T07:46:26.265Z,14.78
2019-01-08T07:47:31.135Z,14.93
2019-01-08T07:48:36.081Z,14.55
2019-01-08T07:49:40.890Z,14.53
2019-01-08T07:50:45.836Z,14.70
2019-01-08T07:51:50.729Z,14.13
2019-01-08T07:52:55.489Z,14.38
2019-01-08T07:54:00.440Z,14.65
2019-01-08T07:55:05.437Z,14.35
2019-01-08T07:56:10.449Z,14.93
2019-01-08T07:57:15.457Z,14.73
2019-01-08T07:58:20.426Z,14.23
2019-01-08T07:59:25.444Z,14.10
2019-01-08T08:00:30.279Z,15.65
2019-01-08T08:01:35.248Z,14.95
2019-01-08T08:02:40.168Z,15.35
2019-01-08T08:03:45.128Z,14.83
2019-01-08T08:04:49.978Z,13.75
2019-01-08T08:05:54.904Z,15.30
2019-01-08T08:06:59.865Z,15.08
2019-01-08T08:08:04.852Z,15.05
2019-01-08T08:09:09.764Z,14.53
2019-01-08T08:10:14.663Z,15.75
2019-01-08T08:11:19.643Z,15.38
2019-01-08T08:12:24.564Z,15.08
2019-01-08T08:13:29.385Z,15.18
2019-01-08T08:14:34.343Z,15.58
2019-01-08T08:15:39.324Z,15.80
2019-01-08T08:16:44.346Z,15.53
2019-01-08T08:17:49.160Z,14.80
2019-01-08T08:18:54.004Z,16.12
2019-01-08T08:19:59.032Z,16.05
2019-01-08T08:21:04.094Z,16.10
2019-01-08T08:22:09.203Z,15.72
2019-01-08T08:23:14.273Z,14.03
2019-01-08T08:24:19.172Z,14.13
2019-01-08T08:25:24.066Z,15.30
2019-01-08T08:26:28.853Z,14.20
2019-01-08T08:27:33.779Z,15.72
2019-01-08T08:28:38.750Z,15.72
2019-01-08T08:29:43.760Z,15.05
2019-01-08T08:30:48.484Z,14.45
2019-01-08T08:31:53.559Z,16.73
2019-01-08T08:32:58.295Z,17.57
2019-01-08T08:34:03.311Z,19.02
2019-01-08T08:35:08.893Z,16.20
2019-01-08T08:36:13.972Z,18.50
2019-01-08T08:37:18.710Z,20.00
2019-01-08T08:38:23.659Z,17.90
2019-01-08T08:39:28.488Z,16.35
2019-01-08T08:40:33.436Z,17.02
2019-01-08T08:41:38.481Z,17.23
2019-01-08T08:42:43.419Z,18.37
2019-01-08T08:43:48.304Z,17.80
2019-01-08T08:44:54.398Z,17.45
2019-01-08T08:45:59.397Z,14.80
2019-01-08T08:47:04.455Z,17.15
2019-01-08T08:48:09.264Z,19.52
2019-01-08T08:49:14.200Z,18.07
2019-01-08T08:50:19.092Z,18.02
2019-01-08T08:51:24.022Z,16.80
2019-01-08T08:52:29.043Z,17.48
2019-01-08T08:53:33.812Z,16.73
2019-01-08T08:54:38.729Z,15.70
2019-01-08T08:55:43.685Z,15.10
2019-01-08T08:56:48.637Z,16.20
2019-01-08T08:57:53.560Z,15.53
2019-01-08T08:58:58.483Z,16.60
2019-01-08T09:00:03.445Z,17.75
2019-01-08T09:01:08.239Z,17.10
2019-01-08T09:02:13.133Z,17.57
2019-01-08T09:03:17.997Z,16.73
2019-01-08T09:04:23.007Z,17.52
2019-01-08T09:05:27.737Z,16.50
2019-01-08T09:06:32.632Z,17.42
2019-01-08T09:07:37.546Z,17.25
2019-01-08T09:08:42.339Z,17.65
2019-01-08T09:09:47.244Z,19.07
2019-01-08T09:10:52.240Z,18.75
2019-01-08T09:11:57.395Z,17.32
2019-01-08T09:13:02.236Z,17.82
2019-01-08T09:14:07.265Z,19.32
2019-01-08T09:15:12.268Z,18.32
2019-01-08T09:16:17.270Z,18.30
2019-01-08T09:17:22.092Z,19.77
2019-01-08T09:18:26.965Z,17.65
2019-01-08T09:19:32.027Z,17.40
2019-01-08T09:20:36.831Z,16.80
2019-01-08T09:21:41.621Z,16.12
2019-01-08T09:22:46.556Z,17.90
2019-01-08T09:23:51.425Z,16.40
2019-01-08T09:24:56.344Z,17.20
2019-01-08T09:26:01.140Z,17.02
2019-01-08T09:27:06.377Z,16.27
2019-01-08T09:28:11.357Z,16.95
2019-01-08T09:29:16.162Z,17.85
2019-01-08T09:30:21.130Z,17.37
2019-01-08T09:31:26.036Z,16.42
2019-01-08T09:32:30.891Z,16.70
2019-01-08T09:33:35.759Z,16.35
2019-01-08T09:34:40.610Z,17.23
2019-01-08T09:35:45.562Z,16.02
2019-01-08T09:36:50.574Z,16.23
2019-01-08T09:37:55.465Z,16.23
2019-01-08T09:39:00.574Z,17.12
2019-01-08T09:40:06.112Z,17.00
2019-01-08T09:41:11.110Z,18.23
2019-01-08T09:42:15.867Z,16.75
2019-01-08T09:43:20.761Z,16.40
2019-01-08T09:44:25.876Z,15.28
2019-01-08T09:45:30.880Z,16.42
2019-01-08T09:46:35.699Z,17.48
2019-01-08T09:47:40.734Z,15.43
2019-01-08T09:48:45.493Z,17.12
2019-01-08T09:49:50.411Z,15.80
2019-01-08T09:50:55.243Z,18.15
2019-01-08T09:52:01.318Z,17.32
2019-01-08T09:53:06.221Z,16.55
2019-01-08T09:54:11.251Z,18.05
2019-01-08T09:55:16.117Z,15.65
2019-01-08T09:56:21.075Z,16.82
2019-01-08T09:57:25.825Z,16.07
2019-01-08T09:58:30.604Z,16.00
2019-01-08T09:59:35.682Z,15.13
2019-01-08T10:00:40.670Z,15.58
2019-01-08T10:01:45.496Z,15.38
2019-01-08T10:02:50.282Z,16.70
2019-01-08T10:03:55.478Z,16.23
2019-01-08T10:05:00.532Z,15.28
2019-01-08T10:06:05.329Z,15.98
2019-01-08T10:07:10.163Z,15.75
2019-01-08T10:08:15.284Z,16.97
2019-01-08T10:09:20.267Z,17.12
2019-01-08T10:10:25.107Z,16.30
2019-01-08T10:11:29.886Z,15.48
2019-01-08T10:12:34.754Z,17.12
2019-01-08T10:13:39.617Z,16.23
2019-01-08T10:14:44.417Z,15.85
2019-01-08T10:15:49.178Z,15.70
2019-01-08T10:16:54.104Z,15.83
2019-01-08T10:17:59.051Z,14.18
2019-01-08T10:19:03.893Z,15.00
2019-01-08T10:20:08.841Z,15.83
2019-01-08T10:21:13.707Z,16.87
2019-01-08T10:22:18.789Z,16.50
2019-01-08T10:23:23.545Z,16.07
2019-01-08T10:24:28.420Z,16.37
2019-01-08T10:25:33.303Z,15.72
2019-01-08T10:26:38.171Z,15.60
2019-01-08T10:27:43.159Z,15.25
2019-01-08T10:28:48.137Z,16.12
2019-01-08T10:29:53.152Z,15.63
2019-01-08T10:30:57.982Z,16.95
2019-01-08T10:32:03.055Z,16.70
2019-01-08T10:33:08.092Z,17.42
2019-01-08T10:34:13.023Z,17.37
2019-01-08T10:35:18.028Z,15.00
2019-01-08T10:36:23.009Z,16.50
2019-01-08T10:37:27.928Z,15.80
2019-01-08T10:38:32.889Z,15.40
2019-01-08T10:39:37.791Z,16.95
2019-01-08T10:40:42.844Z,15.90
2019-01-08T10:41:47.748Z,17.12
2019-01-08T10:42:52.740Z,16.82
2019-01-08T10:43:57.711Z,16.77
2019-01-08T10:45:02.628Z,17.32
2019-01-08T10:46:07.777Z,18.25
2019-01-08T10:47:12.805Z,17.90
2019-01-08T10:48:17.700Z,17.05
2019-01-08T10:49:22.843Z,17.67
2019-01-08T10:50:27.802Z,18.00
2019-01-08T10:51:32.860Z,18.37
2019-01-08T10:52:37.912Z,17.82
2019-01-08T10:53:42.721Z,18.87
2019-01-08T10:54:47.584Z,17.15
2019-01-08T10:55:52.606Z,19.25
2019-01-08T10:56:57.524Z,23.52
2019-01-08T10:58:02.437Z,18.98
2019-01-08T10:59:07.732Z,24.52
2019-01-08T11:00:13.205Z,21.80
2019-01-08T11:01:18.180Z,17.20
2019-01-08T11:02:23.127Z,17.32
2019-01-08T11:03:28.363Z,16.17
2019-01-08T11:04:33.297Z,16.00
2019-01-08T11:05:38.276Z,16.60
2019-01-08T11:06:43.546Z,14.65
2019-01-08T11:07:48.631Z,15.75
2019-01-08T11:08:53.739Z,16.70
2019-01-08T11:09:58.544Z,16.40
2019-01-08T11:11:03.701Z,16.60
2019-01-08T11:12:08.680Z,16.82
2019-01-08T11:13:13.589Z,16.17
2019-01-08T11:14:18.543Z,17.12
2019-01-08T11:15:23.592Z,17.23
2019-01-08T11:16:28.610Z,17.75
2019-01-08T11:17:33.431Z,18.30
2019-01-08T11:18:38.432Z,18.90
2019-01-08T11:19:43.476Z,16.65
2019-01-08T11:20:48.565Z,17.15
2019-01-08T11:21:53.267Z,16.10
2019-01-08T11:22:58.221Z,17.25
2019-01-08T11:24:03.104Z,18.37
2019-01-08T11:25:08.085Z,17.00
2019-01-08T11:26:12.975Z,16.87
2019-01-08T11:27:18.021Z,17.15
2019-01-08T11:28:23.028Z,18.85
2019-01-08T11:29:27.901Z,20.05
2019-01-08T11:30:33.099Z,20.70
2019-01-08T11:31:37.924Z,21.70
2019-01-08T11:32:42.922Z,19.23
2019-01-08T11:33:47.976Z,18.60
2019-01-08T11:34:53.015Z,19.62
2019-01-08T11:35:58.067Z,21.40
2019-01-08T11:37:02.939Z,20.00
2019-01-08T11:38:07.840Z,19.35
2019-01-08T11:39:12.744Z,20.62
2019-01-08T11:40:17.634Z,23.12
2019-01-08T11:41:22.443Z,19.75
2019-01-08T11:42:30.644Z,19.17
2019-01-08T11:43:35.633Z,18.87
2019-01-08T11:44:40.528Z,23.25
2019-01-08T11:45:48.296Z,20.55
2019-01-08T11:46:53.229Z,19.10
2019-01-08T11:48:03.838Z,22.52
2019-01-08T11:49:04.749Z,19.37
2019-01-08T11:50:09.757Z,21.68
2019-01-08T11:51:14.741Z,23.50
2019-01-08T11:52:19.566Z,20.20
2019-01-08T11:53:24.594Z,21.10
2019-01-08T11:54:29.580Z,19.80
2019-01-08T11:55:34.436Z,20.27
2019-01-08T11:56:39.419Z,21.42
2019-01-08T11:57:44.451Z,20.10
2019-01-08T11:58:49.400Z,22.20
2019-01-08T11:59:54.154Z,19.48
2019-01-08T12:00:59.336Z,18.07
2019-01-08T12:02:04.046Z,17.15
2019-01-08T12:03:08.921Z,17.92
2019-01-08T12:04:13.832Z,18.20
2019-01-08T12:05:18.744Z,18.85
2019-01-08T12:06:23.842Z,21.65
2019-01-08T12:07:31.363Z,17.70
2019-01-08T12:08:35.477Z,17.17
2019-01-08T12:09:40.545Z,19.52
2019-01-08T12:10:46.059Z,17.65
2019-01-08T12:11:51.500Z,15.15
2019-01-08T12:12:56.530Z,15.25
2019-01-08T12:14:01.487Z,15.72
2019-01-08T12:15:07.009Z,14.18
2019-01-08T12:16:12.291Z,15.53
2019-01-08T12:17:17.358Z,16.80
2019-01-08T12:18:22.280Z,15.32
2019-01-08T12:19:27.070Z,15.32
2019-01-08T12:20:32.197Z,15.60
2019-01-08T12:21:37.321Z,17.27
2019-01-08T12:22:42.156Z,15.90
2019-01-08T12:23:50.084Z,16.15
2019-01-08T12:24:54.962Z,15.32
2019-01-08T12:25:59.796Z,15.53
2019-01-08T12:27:04.861Z,16.42
2019-01-08T12:28:09.814Z,15.85
2019-01-08T12:29:14.836Z,14.68
2019-01-08T12:30:19.760Z,15.23
2019-01-08T12:31:24.801Z,14.68
2019-01-08T12:32:29.827Z,15.18
2019-01-08T12:33:34.672Z,15.85
2019-01-08T12:34:39.633Z,15.68
2019-01-08T12:35:44.621Z,16.15
2019-01-08T12:36:49.572Z,13.72
2019-01-08T12:37:54.460Z,14.20
2019-01-08T12:38:59.449Z,14.40
2019-01-08T12:40:04.523Z,14.55
2019-01-08T12:41:09.372Z,14.70
2019-01-08T12:42:17.301Z,15.08
2019-01-08T12:43:22.259Z,15.40
2019-01-08T12:44:27.150Z,14.73
2019-01-08T12:45:31.987Z,15.50
2019-01-08T12:46:37.076Z,15.45
2019-01-08T12:47:41.959Z,13.43
2019-01-08T12:48:46.788Z,14.70
2019-01-08T12:49:51.805Z,14.68
2019-01-08T12:50:56.893Z,15.03
2019-01-08T12:52:02.036Z,14.70
2019-01-08T12:53:06.962Z,15.13
2019-01-08T12:54:11.995Z,14.73
2019-01-08T12:55:17.152Z,14.40
2019-01-08T12:56:22.133Z,14.58
2019-01-08T12:57:26.975Z,14.85
2019-01-08T12:58:31.924Z,14.63
2019-01-08T12:59:36.893Z,14.03
2019-01-08T13:00:41.817Z,13.88
2019-01-08T13:01:46.805Z,13.45
2019-01-08T13:02:51.901Z,14.20
2019-01-08T13:03:56.924Z,13.13
2019-01-08T13:05:01.895Z,12.40
2019-01-08T13:06:06.894Z,14.95
2019-01-08T13:07:12.111Z,13.93
2019-01-08T13:08:17.041Z,15.63
2019-01-08T13:09:21.960Z,15.20
2019-01-08T13:10:26.861Z,15.50
2019-01-08T13:11:31.771Z,16.40
2019-01-08T13:12:36.861Z,15.35
2019-01-08T13:13:41.733Z,15.58
2019-01-08T13:14:46.645Z,15.83
2019-01-08T13:15:51.516Z,14.60
2019-01-08T13:16:56.549Z,15.30
2019-01-08T13:18:01.505Z,14.18
2019-01-08T13:19:06.370Z,15.48
2019-01-08T13:20:11.412Z,16.75
2019-01-08T13:21:16.187Z,15.10
2019-01-08T13:22:21.246Z,15.75
2019-01-08T13:23:26.129Z,16.65
2019-01-08T13:24:31.076Z,17.48
2019-01-08T13:25:35.871Z,18.30
2019-01-08T13:26:41.204Z,21.17
2019-01-08T13:27:46.256Z,21.60
2019-01-08T13:28:51.570Z,19.98
2019-01-08T13:29:56.440Z,24.90
2019-01-08T13:31:01.492Z,21.85
2019-01-08T13:32:06.647Z,17.95
2019-01-08T13:33:11.479Z,16.48
2019-01-08T13:34:16.517Z,18.62
2019-01-08T13:35:21.625Z,21.45
2019-01-08T13:36:26.702Z,20.37
2019-01-08T13:37:31.533Z,18.48
2019-01-08T13:38:36.734Z,17.15
2019-01-08T13:39:41.716Z,18.90
2019-01-08T13:40:46.707Z,16.48
2019-01-08T13:41:51.751Z,17.87
2019-01-08T13:42:56.769Z,17.52
2019-01-08T13:44:01.800Z,19.87
2019-01-08T13:45:07.100Z,19.07
2019-01-08T13:46:11.901Z,16.62
2019-01-08T13:47:16.880Z,21.20
2019-01-08T13:48:21.805Z,14.93
2019-01-08T13:49:26.597Z,16.95
2019-01-08T13:50:31.606Z,21.00
2019-01-08T13:51:36.571Z,16.82
2019-01-08T13:52:41.620Z,17.42
2019-01-08T13:53:46.567Z,19.52
2019-01-08T13:54:51.754Z,20.55
2019-01-08T13:55:56.946Z,19.23
2019-01-08T13:57:01.849Z,18.27
2019-01-08T13:58:07.093Z,19.80
2019-01-08T13:59:12.234Z,27.15
2019-01-08T14:00:17.346Z,25.55
2019-01-08T14:01:22.217Z,18.60